Aérodrome :
LOGIN :

S'inscrire | Disclaimer

   EN    FR    IT 

 










Légende :    VFR   VFR Marginal   IFR   IFR Intensif   IFR Très Intensif
Visi : 
Plafond : 
>= 8 km
>= 3000ft
5 à 8 km
1000 à 3000 ft
1500m à 5 km
500 à 1000 ft
800 à 1500m
200 à 500 ft
< 800m
< 200 ft
Symboles :   Orages  Brouillard  Fortes neiges  Fortes précipitations  Vent > 20 kt
SIGMETs :   Divers  Orages  Givrage  Turbulence  Onde Orograph.  Cendres Volcan.






- Altitude de l'aérodrome : 784 ft
- Code IATA : TZL


LQTZ - Tuzla

DERNIER METAR :
  • 260100Z VRB01KT 2000 BR SCT045 M01/M01 Q1022

METARs EXPIRÉS :
  • 260000Z VRB01KT 1500 BR SCT002 M00/M00 Q1022
  • 252300Z VRB02KT 5000 BR NSC 01/00 Q1022

TAF TAF LQTZ
Valide du 26 à 00h jusqu'au 27 à 00h UTC


252300Z 2600/2624 10004KT 6000 SCT050 TX12/2613Z TNM02/2606Z
TEMPO 2600/2610 1500 BR BKN005
PROB30
TEMPO 2602/2609 0300 FZFG VV001
TEMPO 2615/2624 3000 RA BR BKN010 BKN040



MET'MAP, la Météo Aéronautique d'un coup d'oeil ! - Copyright ORBIFLY Décembre 2007 - Disclaimer

ORBIFLY MET'MAP TEAM :

Programmation & Développement : Alexandra Zaïnal
Sur une idée originale de : Baudouin d'Aumeries
Assistance à la programmation : Marc-Olivier Méhu
Soutien technique & logistique : Manuel Goepfert

Contact : metmap@orbifly.com




SOURCES & CREDITS :

   NOAA